Terminal Aerodrome Forecast
Issued by NWS

Home | Current Version | Previous Version | Text Only | Print | Product List | Glossary On
Versions: 1 2 3 4 5 6 7 8 9 10 11 12 13
308
FTUS42 TJSJ 121922 AAA
TAFJMZ
TAF AMD
TJMZ 121922Z 1219/1318 VRB05KT P6SM VCSH SCT025 BKN040
     FM122200 06006KT P6SM FEW030 SCT060
     FM131530 28009KT P6SM FEW025 SCT040
      AMD NOT SKED=

USA.gov is the U.S. government's official web portal to all federal, state and local government web resources and services.